»·PEaware :: UAL1651 KSFO-KLAX

UAL1651 :: KSFO-KLAX

FLIGHT INFORMATION

Flight Status: Arrived
Operator:
United Airlines
More flights by this operator :: More flights under this callsign
Pilot: Lauren G. (5641)
Aircraft: BOEING 737-300
(B733)
More flights by this aircraft type
Origin: KSFO San Francisco Intl
United States
Destination: KLAX Los Angeles Intl
United States
More flights between these airports :: More routes between these airports
Route: SSTIK3 EBAYE BURGL IRNMN1
File this flight plan on PilotEdge
Remarks:
Altitude:
(Current/Filed)
35,000ft
Speed:
(Current/Filed)
450kts
Departed: 12-Jan-18 08:18 AM
Arrived: 12-Jan-18 09:19 AM
Distance/Time
Traveled:
293nm/1:01
Distance/Time
To Go:
Arrived

Flight Plot

Page will automatically refresh every two minutes.

Flight plan parsing failed; only flown route is shown


Map Options




Map Legend


Flown Route
Filed Route
Departure Airport
Arrival Airport
Navaid (VOR, NDB)
Fix

Horizontal Profiles

Position Reports

Time Latitude Longitude Heading Altitude Ground
Speed
12-Jan-18 07:51 37.618642 -122.388048 158 19ft 0kts
12-Jan-18 07:52 37.618642 -122.388048 158 19ft 0kts
12-Jan-18 07:53 37.618642 -122.388048 158 19ft 0kts
12-Jan-18 07:54 37.618642 -122.388048 158 19ft 0kts
12-Jan-18 07:55 37.618642 -122.388048 158 19ft 0kts
12-Jan-18 07:56 37.618642 -122.388048 158 19ft 0kts
12-Jan-18 07:57 37.618642 -122.388048 158 19ft 0kts
12-Jan-18 07:58 37.618642 -122.388048 158 19ft 0kts
12-Jan-18 07:59 37.618642 -122.388048 158 19ft 0kts
12-Jan-18 08:00 37.618642 -122.388048 158 19ft 0kts
12-Jan-18 08:01 37.618642 -122.388048 158 19ft 0kts
12-Jan-18 08:02 37.618642 -122.388048 158 19ft 0kts
12-Jan-18 08:03 37.618642 -122.388048 158 19ft 0kts
12-Jan-18 08:04 37.618642 -122.388048 158 19ft 0kts
12-Jan-18 08:05 37.618642 -122.388048 158 19ft 0kts
12-Jan-18 08:06 37.618642 -122.388048 158 19ft 0kts
12-Jan-18 08:07 37.618642 -122.388048 158 19ft 0kts
12-Jan-18 08:08 37.618642 -122.388048 158 19ft 0kts
12-Jan-18 08:09 37.618642 -122.388048 158 19ft 0kts
12-Jan-18 08:10 37.618642 -122.388048 158 19ft 0kts
12-Jan-18 08:11 37.618642 -122.388048 158 19ft 0kts
12-Jan-18 08:12 37.618889 -122.388172 158 19ft 0kts
12-Jan-18 08:13 37.619142 -122.388303 156 19ft 0kts
12-Jan-18 08:14 37.619142 -122.388302 156 19ft 0kts
12-Jan-18 08:15 37.619414 -122.389806 298 19ft 11kts
12-Jan-18 08:16 37.620032 -122.391256 298 19ft 0kts
12-Jan-18 08:17 37.622061 -122.391153 37 19ft 13kts
12-Jan-18 08:18 37.621798 -122.387090 118 19ft 13kts
12-Jan-18 08:19 37.619720 -122.382164 117 19ft 14kts
12-Jan-18 08:20 37.616010 -122.380030 207 19ft 16kts
12-Jan-18 08:21 37.611822 -122.382798 208 19ft 15kts
12-Jan-18 08:22 37.608598 -122.384153 118 19ft 9kts
12-Jan-18 08:23 37.608271 -122.382832 64 19ft 11kts
12-Jan-18 08:24 37.624871 -122.371648 28 197ft 165kts
12-Jan-18 08:25 37.675201 -122.356374 358 1992ft 220kts
12-Jan-18 08:26 37.697856 -122.409809 229 3983ft 262kts
12-Jan-18 08:27 37.630775 -122.435067 194 5966ft 280kts
12-Jan-18 08:28 37.555622 -122.455788 196 7921ft 289kts
12-Jan-18 08:29 37.476585 -122.453703 146 10034ft 317kts
12-Jan-18 08:30 37.409988 -122.365828 133 11680ft 375kts
12-Jan-18 08:31 37.341731 -122.272440 134 14368ft 389kts
12-Jan-18 08:32 37.272320 -122.177826 134 16903ft 403kts
12-Jan-18 08:33 37.202296 -122.082707 134 19150ft 416kts
12-Jan-18 08:34 37.126236 -121.980050 134 21331ft 429kts
12-Jan-18 08:35 37.045250 -121.871470 134 23542ft 438kts
12-Jan-18 08:36 36.962700 -121.761178 134 25550ft 447kts
12-Jan-18 08:37 36.897554 -121.674408 134 26875ft 456kts
12-Jan-18 08:38 36.816653 -121.567297 134 28348ft 467kts
12-Jan-18 08:39 36.729228 -121.451609 134 30285ft 464kts
12-Jan-18 08:40 36.643137 -121.338082 135 31947ft 463kts
12-Jan-18 08:41 36.561869 -121.231283 135 33379ft 459kts
12-Jan-18 08:42 36.477578 -121.121392 135 34561ft 459kts
12-Jan-18 08:43 36.393394 -121.007056 132 35410ft 465kts
12-Jan-18 08:44 36.308997 -120.885365 132 35407ft 476kts
12-Jan-18 08:45 36.223782 -120.763251 131 35395ft 475kts
12-Jan-18 08:46 36.140251 -120.644000 132 35395ft 475kts
12-Jan-18 08:47 36.054741 -120.522730 131 35376ft 475kts
12-Jan-18 08:48 35.970954 -120.403769 132 35392ft 476kts
12-Jan-18 08:49 35.891322 -120.291213 133 35347ft 475kts
12-Jan-18 08:50 35.821974 -120.223383 153 35396ft 470kts
12-Jan-18 08:51 35.721565 -120.149611 151 35367ft 474kts
12-Jan-18 08:52 35.617711 -120.071366 150 35345ft 473kts
12-Jan-18 08:53 35.506525 -119.987501 151 35297ft 473kts
12-Jan-18 08:54 35.395999 -119.904407 151 35069ft 469kts
12-Jan-18 08:55 35.290803 -119.825489 149 33842ft 438kts
12-Jan-18 08:56 35.192203 -119.734023 144 32548ft 449kts
12-Jan-18 08:57 35.093755 -119.642053 144 31082ft 450kts
12-Jan-18 08:58 34.994922 -119.549700 144 29680ft 454kts
12-Jan-18 08:59 34.898150 -119.460440 146 28362ft 456kts
12-Jan-18 09:00 34.799943 -119.373051 145 26962ft 446kts
12-Jan-18 09:01 34.705804 -119.289557 146 25311ft 436kts
12-Jan-18 09:02 34.609263 -119.205675 146 23153ft 420kts
12-Jan-18 09:03 34.529876 -119.136489 145 21374ft 409kts
12-Jan-18 09:04 34.442557 -119.059163 145 19266ft 396kts
12-Jan-18 09:05 34.355025 -118.983335 145 17173ft 384kts
12-Jan-18 09:06 34.271261 -118.907874 143 15288ft 371kts
12-Jan-18 09:07 34.192718 -118.835951 143 13783ft 342kts
12-Jan-18 09:08 34.123003 -118.765219 137 11889ft 325kts
12-Jan-18 09:09 34.057809 -118.694095 136 10120ft 302kts
12-Jan-18 09:10 34.024796 -118.611897 92 8707ft 278kts
12-Jan-18 09:11 34.016446 -118.521722 93 8036ft 274kts
12-Jan-18 09:12 34.013056 -118.440109 74 7027ft 248kts
12-Jan-18 09:13 34.026090 -118.365680 75 6079ft 229kts
12-Jan-18 09:14 34.032991 -118.302410 82 5981ft 237kts
12-Jan-18 09:15 34.039157 -118.227130 82 4983ft 226kts
12-Jan-18 09:16 34.045189 -118.153520 82 4982ft 226kts
12-Jan-18 09:17 34.043941 -118.082104 126 4981ft 227kts
12-Jan-18 09:18 33.986993 -118.070780 218 4972ft 227kts
12-Jan-18 09:19 33.958833 -118.130707 269 4435ft 224kts
12-Jan-18 09:20 33.956339 -118.198860 265 3161ft 210kts
12-Jan-18 09:21 33.949967 -118.261110 263 2126ft 191kts
12-Jan-18 09:22 33.944067 -118.317858 263 1204ft 160kts
12-Jan-18 09:23 33.939126 -118.364548 262 467ft 135kts
12-Jan-18 09:24 33.935415 -118.401981 263 110ft 59kts
12-Jan-18 09:25 33.935854 -118.406170 289 110ft 8kts
12-Jan-18 09:26 33.937163 -118.409024 352 110ft 5kts
12-Jan-18 09:27 33.938860 -118.407333 82 110ft 18kts
12-Jan-18 09:28 33.939421 -118.402083 83 110ft 15kts
12-Jan-18 09:29 33.941585 -118.398299 352 110ft 16kts
12-Jan-18 09:30 33.942838 -118.398044 81 110ft 0kts
12-Jan-18 09:31 33.942838 -118.398044 81 110ft 0kts
12-Jan-18 09:32 33.942838 -118.398044 81 110ft 0kts
12-Jan-18 09:33 33.942838 -118.398044 81 110ft 0kts
12-Jan-18 09:34 33.942838 -118.398044 81 110ft 0kts
12-Jan-18 09:35 33.942838 -118.398044 81 110ft 0kts

Navigation Log

Ident Type
Flight plan parsing failed, navigation log unavailable